Time;durP1;ratioP1;P1;durP2;ratioP2;P2;SDS_P1;SDS_P2;PMS_P1;PMS_P2;Temp;Humidity;BMP_temperature;BMP_pressure;BME280_temperature;BME280_humidity;BME280_pressure;Samples;Min_cycle;Max_cycle;Signal;HPM_P1;HPM_P2
2022/01/12 00:01:13;;;;;;;51.07;33.17;;;;;;;3.43;77.96;103280.16;5011103;28;20473;-45
2022/01/12 00:03:42;;;;;;;56.20;31.57;;;;;;;3.43;77.56;103287.22;5012036;28;20535;-42
2022/01/12 00:06:11;;;;;;;63.83;32.83;;;;;;;3.42;76.79;103290.78;5012037;28;20940;-42
2022/01/12 00:08:39;;;;;;;56.87;36.97;;;;;;;3.46;76.37;103282.63;5012182;28;20442;-43
2022/01/12 00:11:07;;;;;;;58.47;31.87;;;;;;;3.43;76.46;103281.94;5011385;28;20481;-42
2022/01/12 00:13:35;;;;;;;73.70;36.30;;;;;;;3.44;76.29;103287.09;5011871;28;20444;-43
2022/01/12 00:16:04;;;;;;;60.37;35.10;;;;;;;3.46;76.13;103271.22;5015851;28;20435;-44
2022/01/12 00:18:33;;;;;;;58.43;34.33;;;;;;;3.46;76.05;103282.63;5015903;28;20429;-41
2022/01/12 00:21:02;;;;;;;74.07;34.50;;;;;;;3.47;75.60;103279.00;5015240;28;20868;-42
2022/01/12 00:23:32;;;;;;;73.40;35.80;;;;;;;3.48;75.70;103283.38;5015818;28;20429;-43
2022/01/12 00:26:03;;;;;;;76.77;33.93;;;;;;;3.47;75.97;103270.25;5015482;28;20440;-42
2022/01/12 00:34:06;;;;;;;84.10;36.37;;;;;;;3.49;74.73;103285.06;5015847;28;20473;-42
2022/01/12 00:36:34;;;;;;;70.10;33.80;;;;;;;3.45;74.58;103283.53;5015650;28;20437;-42
2022/01/12 00:39:06;;;;;;;62.07;33.77;;;;;;;3.48;74.17;103290.44;5015962;28;20425;-43
2022/01/12 00:41:35;;;;;;;65.60;32.93;;;;;;;3.51;74.01;103285.81;5014780;28;20465;-42
2022/01/12 00:44:07;;;;;;;85.80;35.30;;;;;;;3.53;73.67;103285.72;5011372;28;20425;-43
2022/01/12 00:46:35;;;;;;;69.53;35.47;;;;;;;3.57;72.75;103281.97;5008868;28;20433;-43
2022/01/12 00:49:03;;;;;;;72.07;32.53;;;;;;;3.56;74.18;103277.63;5015440;28;20927;-42
2022/01/12 00:51:33;;;;;;;73.67;33.57;;;;;;;3.56;74.10;103273.22;5014952;28;20472;-42
2022/01/12 00:54:02;;;;;;;73.93;36.87;;;;;;;3.56;73.89;103269.72;5015343;28;20440;-42
2022/01/12 00:56:31;;;;;;;65.53;33.97;;;;;;;3.59;74.12;103282.72;5015304;28;20437;-43
2022/01/12 00:58:59;;;;;;;67.07;33.10;;;;;;;3.59;73.92;103270.38;5015342;28;20460;-42
2022/01/12 01:01:27;;;;;;;79.50;33.87;;;;;;;3.61;73.83;103270.31;5014448;28;20479;-42
2022/01/12 01:03:55;;;;;;;67.07;34.70;;;;;;;3.60;73.52;103271.25;5015076;28;20433;-41
2022/01/12 01:06:23;;;;;;;60.20;31.77;;;;;;;3.61;73.42;103284.38;5015074;28;21014;-43
2022/01/12 01:08:51;;;;;;;70.73;34.13;;;;;;;3.63;73.51;103293.03;5015254;28;20436;-43
2022/01/12 01:11:20;;;;;;;70.60;32.50;;;;;;;3.66;73.62;103292.00;5014331;28;20484;-42
2022/01/12 01:13:57;;;;;;;78.07;35.10;;;;;;;3.67;73.73;103304.25;5014835;28;20435;-41
2022/01/12 01:16:41;;;;;;;93.27;35.93;;;;;;;3.70;73.59;103304.91;5015243;28;20504;-42
2022/01/12 01:27:24;;;;;;;73.67;32.53;;;;;;;3.77;74.28;103316.81;5013778;28;20433;-42
2022/01/12 01:29:54;;;;;;;97.50;37.17;;;;;;;3.77;74.66;103326.50;5014639;28;20461;-42
2022/01/12 01:32:23;;;;;;;98.27;37.80;;;;;;;3.77;74.42;103337.06;5034792;23;20775;-44
2022/01/12 01:34:51;;;;;;;75.60;32.83;;;;;;;3.77;73.40;103337.94;4994412;28;20470;-45
2022/01/12 01:37:19;;;;;;;99.13;36.10;;;;;;;3.74;73.94;103346.03;4994802;28;20464;-47
2022/01/12 01:39:46;;;;;;;88.80;36.83;;;;;;;3.80;73.39;103344.81;4994917;28;20438;-47
2022/01/12 01:42:19;;;;;;;73.67;33.40;;;;;;;3.81;73.48;103349.16;4996116;28;20462;-46
2022/01/12 01:53:21;;;;;;;90.90;35.00;;;;;;;3.86;73.97;103331.25;4993642;28;20474;-44
2022/01/12 01:55:51;;;;;;;97.70;37.10;;;;;;;3.86;74.03;103325.97;4994134;28;20484;-44
2022/01/12 01:58:18;;;;;;;82.57;34.10;;;;;;;3.85;74.19;103327.75;4994699;28;20430;-45
2022/01/12 02:00:46;;;;;;;94.93;35.93;;;;;;;3.86;73.98;103342.66;4993503;28;20438;-44
2022/01/12 02:03:17;;;;;;;57.27;33.30;;;;;;;3.88;73.23;103340.78;4994056;28;20827;-43
2022/01/12 02:05:45;;;;;;;66.40;33.57;;;;;;;3.88;72.81;103340.78;4994085;28;20517;-45
2022/01/12 02:08:13;;;;;;;75.33;30.80;;;;;;;3.90;73.14;103346.84;4993995;28;20804;-44
2022/01/12 02:10:40;;;;;;;77.23;33.43;;;;;;;3.91;73.33;103337.97;4993980;28;20456;-46
2022/01/12 02:13:09;;;;;;;108.27;38.73;;;;;;;3.91;73.64;103350.34;4993717;28;20446;-44
2022/01/12 02:15:40;;;;;;;94.57;33.07;;;;;;;3.93;74.03;103343.16;4993875;28;20474;-45
2022/01/12 02:18:16;;;;;;;87.27;33.00;;;;;;;3.93;73.51;103351.09;4993869;28;20926;-45
2022/01/12 02:40:31;;;;;;;123.57;41.37;;;;;;;4.04;70.78;103359.22;4992900;28;20438;-47
2022/01/12 02:43:07;;;;;;;115.13;38.20;;;;;;;4.05;70.54;103353.00;4996112;28;20471;-46
2022/01/12 02:51:11;;;;;;;143.97;44.10;;;;;;;4.12;70.02;103364.06;5011954;28;20461;-47
2022/01/12 02:53:42;;;;;;;105.03;39.10;;;;;;;4.13;70.49;103360.47;5012531;28;20449;-47
2022/01/12 02:56:12;;;;;;;110.57;37.80;;;;;;;4.13;70.51;103353.38;5012359;28;20484;-46
2022/01/12 02:58:41;;;;;;;101.90;37.63;;;;;;;4.16;70.37;103350.56;5012538;28;20449;-44
2022/01/12 03:01:36;;;;;;;123.80;43.03;;;;;;;4.18;70.07;103353.13;5011797;28;20473;-45
2022/01/12 03:04:07;;;;;;;137.10;42.07;;;;;;;4.21;70.10;103353.78;5012323;28;20460;-46
2022/01/12 03:06:39;;;;;;;99.43;40.60;;;;;;;4.24;70.17;103365.97;5012228;28;20491;-46
2022/01/12 03:09:11;;;;;;;128.77;44.63;;;;;;;4.23;70.76;103364.25;5012236;28;20432;-47
2022/01/12 03:11:40;;;;;;;109.60;39.90;;;;;;;4.26;70.38;103361.44;5011623;28;20463;-45
2022/01/12 03:14:07;;;;;;;131.60;41.73;;;;;;;4.27;70.08;103363.16;5012014;28;20457;-45
2022/01/12 03:16:35;;;;;;;137.60;42.20;;;;;;;4.31;69.49;103356.72;5012104;28;20477;-47
2022/01/12 03:19:04;;;;;;;101.40;39.57;;;;;;;4.34;69.63;103361.81;5012120;28;20433;-45
2022/01/12 03:21:34;;;;;;;158.00;45.70;;;;;;;4.36;69.43;103367.88;5011659;28;20817;-45
2022/01/12 03:24:03;;;;;;;178.30;47.17;;;;;;;4.35;69.40;103369.66;5012180;28;20453;-48
2022/01/12 03:26:33;;;;;;;195.73;49.57;;;;;;;4.40;68.10;103379.94;5012203;28;20433;-45
2022/01/12 03:29:02;;;;;;;122.73;42.57;;;;;;;4.43;68.10;103374.47;5012134;28;20526;-45
2022/01/12 03:31:34;;;;;;;294.07;59.97;;;;;;;4.39;67.57;103381.72;5011226;28;20472;-47
2022/01/12 03:34:07;;;;;;;246.30;56.90;;;;;;;4.42;67.06;103388.66;5011944;28;20821;-46
2022/01/12 03:36:53;;;;;;;164.33;45.80;;;;;;;4.42;66.18;103394.75;5012123;28;20480;-47
2022/01/12 03:39:21;;;;;;;247.57;55.07;;;;;;;4.43;66.83;103388.53;5011997;28;20436;-45
2022/01/12 03:41:50;;;;;;;247.63;55.50;;;;;;;4.44;65.95;103394.69;5011242;28;20559;-46
2022/01/12 03:44:18;;;;;;;331.73;65.03;;;;;;;4.45;66.49;103388.44;5011790;28;20461;-45
2022/01/12 03:46:48;;;;;;;113.07;39.23;;;;;;;4.45;66.09;103386.63;5011952;28;20803;-47
2022/01/12 03:49:17;;;;;;;184.37;46.53;;;;;;;4.42;66.16;103388.66;5012892;28;20429;-48
2022/01/12 03:51:46;;;;;;;156.63;42.73;;;;;;;4.37;64.63;103382.75;5015352;28;20461;-46
2022/01/12 03:54:15;;;;;;;108.93;39.57;;;;;;;4.39;63.63;103379.09;5015661;28;20480;-46
2022/01/12 03:56:43;;;;;;;75.87;33.77;;;;;;;4.35;65.47;103377.59;5015823;28;20477;-46
2022/01/12 03:59:12;;;;;;;76.43;32.73;;;;;;;4.31;65.66;103386.63;5015764;28;20432;-46
2022/01/12 04:01:40;;;;;;;78.43;34.40;;;;;;;4.27;64.75;103379.81;5015140;28;20467;-46
2022/01/12 04:04:18;;;;;;;79.53;31.33;;;;;;;4.27;64.09;103389.56;5015671;28;20543;-46
2022/01/12 04:09:48;;;;;;;59.37;30.43;;;;;;;4.27;64.61;103389.56;5015493;28;20424;-45
2022/01/12 04:12:17;;;;;;;55.63;28.70;;;;;;;4.28;64.71;103383.31;5014706;28;20976;-46
2022/01/12 04:14:46;;;;;;;53.03;28.53;;;;;;;4.27;65.61;103381.63;5015463;28;20439;-46
2022/01/12 04:17:13;;;;;;;77.67;31.73;;;;;;;4.24;67.05;103377.34;5015169;28;20483;-45
2022/01/12 04:19:41;;;;;;;70.33;29.40;;;;;;;4.22;68.72;103384.53;5015501;28;20429;-46
2022/01/12 04:23:16;;;;;;;62.43;27.53;;;;;;;4.08;66.87;103379.22;5014735;28;20465;-45
2022/01/12 04:25:07;;;;;;;68.00;29.43;;;;;;;4.10;63.89;103384.41;5015057;28;20440;-46
2022/01/12 04:27:36;;;;;;;65.10;28.37;;;;;;;4.09;64.33;103385.38;5015099;28;21042;-45
2022/01/12 04:30:06;;;;;;;66.07;30.20;;;;;;;4.10;64.39;103395.81;5015012;28;20499;-45
2022/01/12 04:32:37;;;;;;;63.03;29.00;;;;;;;4.09;65.38;103395.94;5014339;28;20479;-45
2022/01/12 04:35:05;;;;;;;54.27;26.60;;;;;;;4.03;64.41;103397.13;5015019;28;20433;-46
2022/01/12 04:37:34;;;;;;;51.07;26.53;;;;;;;4.01;62.98;103395.50;5014880;28;20476;-46
2022/01/12 04:40:01;;;;;;;86.30;29.97;;;;;;;4.04;63.31;103396.19;5014737;28;20444;-45
2022/01/12 04:42:29;;;;;;;53.80;26.57;;;;;;;4.03;63.67;103404.22;5014073;28;20847;-46
2022/01/12 04:45:03;;;;;;;52.37;25.93;;;;;;;3.98;64.71;103403.59;5014880;28;20805;-45
2022/01/12 04:47:57;;;;;;;53.60;24.50;;;;;;;3.99;64.80;103398.25;5015010;28;20437;-48
2022/01/12 04:50:26;;;;;;;46.97;25.23;;;;;;;3.98;65.42;103408.88;5014617;28;20429;-45
2022/01/12 04:52:55;;;;;;;48.07;26.17;;;;;;;3.97;66.07;103410.69;5014095;28;20473;-45
2022/01/12 04:55:23;;;;;;;55.80;28.40;;;;;;;3.91;67.11;103403.97;5014632;28;20969;-46
2022/01/12 04:57:50;;;;;;;58.87;27.63;;;;;;;3.87;66.96;103407.72;5007580;28;20496;-45
2022/01/12 05:00:18;;;;;;;50.63;26.33;;;;;;;3.90;66.75;103412.84;5013517;28;20433;-47
2022/01/12 05:08:34;;;;;;;39.60;22.03;;;;;;;3.67;68.29;103426.50;5014610;28;20434;-46
2022/01/12 05:13:54;;;;;;;44.80;22.60;;;;;;;3.60;63.97;103425.13;5014549;28;20454;-46
2022/01/12 05:16:23;;;;;;;53.03;23.40;;;;;;;3.61;62.21;103423.34;5014408;28;20886;-45
2022/01/12 05:18:53;;;;;;;54.47;23.50;;;;;;;3.62;62.33;103425.88;5014335;28;20433;-47
2022/01/12 05:21:22;;;;;;;45.73;22.37;;;;;;;3.61;62.72;103418.94;5013660;28;20473;-45
2022/01/12 05:23:50;;;;;;;40.30;21.57;;;;;;;3.60;64.15;103416.38;5014073;28;20454;-45
2022/01/12 05:26:18;;;;;;;41.47;19.90;;;;;;;3.52;66.42;103418.59;5014001;28;20445;-45
2022/01/12 05:28:46;;;;;;;52.03;21.20;;;;;;;3.49;67.32;103432.81;5014202;28;20434;-44
2022/01/12 05:31:14;;;;;;;47.80;22.57;;;;;;;3.43;67.87;103427.88;5013096;28;20461;-46
2022/01/12 05:33:46;;;;;;;51.97;23.10;;;;;;;3.43;66.02;103442.84;5013921;28;20838;-45
2022/01/12 05:36:17;;;;;;;48.20;21.60;;;;;;;3.34;64.12;103439.75;5013807;28;20524;-45
2022/01/12 05:38:46;;;;;;;48.10;21.50;;;;;;;3.30;64.09;103443.50;5013741;28;20426;-46
2022/01/12 05:41:13;;;;;;;59.63;24.40;;;;;;;3.28;63.67;103450.66;5013154;28;20457;-44
2022/01/12 05:43:42;;;;;;;65.97;22.87;;;;;;;3.25;62.18;103449.97;5013544;28;20460;-45
2022/01/12 05:46:12;;;;;;;77.00;27.47;;;;;;;3.24;61.21;103440.34;5013624;28;20472;-45
2022/01/12 05:51:28;;;;;;;108.67;30.80;;;;;;;3.33;60.96;103453.91;5012834;28;20544;-45
2022/01/12 05:53:56;;;;;;;41.83;21.60;;;;;;;3.32;62.77;103452.19;5013661;28;20472;-45
2022/01/12 05:56:24;;;;;;;55.83;23.03;;;;;;;3.31;62.75;103460.19;5013458;28;20441;-45
2022/01/12 05:58:52;;;;;;;59.97;22.70;;;;;;;3.22;64.29;103464.19;5013500;28;20429;-45
2022/01/12 06:01:20;;;;;;;53.10;21.77;;;;;;;3.21;64.34;103465.13;5012680;28;20463;-48
2022/01/12 06:03:48;;;;;;;56.97;22.00;;;;;;;3.18;64.24;103469.69;5013239;28;20500;-47
2022/01/12 06:06:16;;;;;;;36.13;18.30;;;;;;;3.11;64.30;103471.81;5013521;28;20499;-45
2022/01/12 06:08:45;;;;;;;46.33;21.90;;;;;;;3.09;63.56;103464.91;5013414;28;20432;-45
2022/01/12 06:11:13;;;;;;;64.57;21.93;;;;;;;3.09;63.36;103468.41;5012405;28;20465;-46
2022/01/12 06:13:40;;;;;;;51.97;20.27;;;;;;;3.15;61.42;103475.13;5012648;28;20449;-46
2022/01/12 06:16:08;;;;;;;169.93;33.93;;;;;;;3.19;61.22;103476.69;5013504;28;20990;-46
2022/01/12 06:18:36;;;;;;;97.93;27.80;;;;;;;3.18;62.40;103485.50;5013203;28;20867;-46
2022/01/12 06:21:03;;;;;;;77.93;25.37;;;;;;;3.25;60.98;103486.91;5012547;28;20464;-45
2022/01/12 06:23:31;;;;;;;185.03;35.13;;;;;;;3.31;59.69;103479.50;5013131;28;20445;-45
2022/01/12 06:26:00;;;;;;;203.60;36.50;;;;;;;3.32;60.99;103489.09;5013048;28;20452;-46
2022/01/12 06:28:40;;;;;;;223.47;34.90;;;;;;;3.38;60.09;103480.00;5012913;28;20433;-44
2022/01/12 06:31:11;;;;;;;79.83;21.57;;;;;;;3.37;62.59;103480.09;5012267;28;20449;-44
2022/01/12 06:33:39;;;;;;;227.47;37.40;;;;;;;3.34;64.82;103489.88;5012675;28;20988;-45
2022/01/12 06:36:08;;;;;;;45.83;17.07;;;;;;;3.38;64.59;103490.56;5012771;28;20442;-46
2022/01/12 06:38:36;;;;;;;56.40;18.57;;;;;;;3.37;65.10;103486.25;5012737;28;20473;-46
2022/01/12 06:41:06;;;;;;;28.27;15.77;;;;;;;3.38;66.44;103494.97;5011960;28;20460;-48
2022/01/12 06:43:35;;;;;;;26.07;13.00;;;;;;;3.36;67.80;103487.16;5012697;28;20976;-47
2022/01/12 06:46:03;;;;;;;73.50;17.33;;;;;;;3.33;68.78;103506.66;5012502;28;20441;-45
2022/01/12 06:48:32;;;;;;;77.13;17.13;;;;;;;3.32;69.14;103512.84;5012665;28;20468;-45
2022/01/12 06:51:00;;;;;;;100.63;21.33;;;;;;;3.35;68.57;103506.53;5012042;28;20438;-49
2022/01/12 06:53:28;;;;;;;47.60;16.33;;;;;;;3.35;68.61;103512.69;5012370;28;20449;-45
2022/01/12 06:55:56;;;;;;;182.57;24.90;;;;;;;3.32;70.62;103509.34;5012709;28;20443;-48
2022/01/12 06:58:25;;;;;;;31.10;15.60;;;;;;;3.32;70.52;103512.84;5012555;28;20481;-46
2022/01/12 07:00:53;;;;;;;123.37;23.70;;;;;;;3.33;69.97;103518.97;5011888;28;20447;-47
2022/01/12 07:03:20;;;;;;;87.53;21.53;;;;;;;3.30;71.59;103525.28;5012256;28;20508;-49
2022/01/12 07:05:48;;;;;;;75.83;18.47;;;;;;;3.27;72.49;103524.56;5012335;28;20791;-44
2022/01/12 07:08:16;;;;;;;100.30;18.70;;;;;;;3.25;73.68;103529.94;5012188;28;20444;-45
2022/01/12 07:10:44;;;;;;;95.07;19.10;;;;;;;3.21;75.63;103528.41;5011797;28;20433;-47
2022/01/12 07:13:13;;;;;;;62.47;15.20;;;;;;;3.20;75.66;103526.69;5012347;28;20464;-47
2022/01/12 07:15:43;;;;;;;174.10;23.43;;;;;;;3.19;76.39;103532.06;5012226;28;20437;-46
2022/01/12 07:18:11;;;;;;;41.33;13.63;;;;;;;3.17;76.94;103537.38;5012178;28;20479;-45
2022/01/12 07:20:39;;;;;;;85.37;16.93;;;;;;;3.18;76.48;103528.56;5011820;28;20437;-46
2022/01/12 07:23:06;;;;;;;126.03;26.17;;;;;;;3.20;75.77;103525.81;5011540;28;20441;-45
2022/01/12 07:25:34;;;;;;;82.73;18.07;;;;;;;3.17;76.96;103526.84;5011699;28;20467;-46
2022/01/12 07:28:01;;;;;;;78.67;17.77;;;;;;;3.17;77.25;103515.44;5012131;28;20428;-45
2022/01/12 07:30:29;;;;;;;47.37;13.27;;;;;;;3.15;77.24;103528.72;5011867;28;20436;-45
2022/01/12 07:32:58;;;;;;;55.53;13.63;;;;;;;3.15;76.45;103527.88;5011321;28;20470;-48
2022/01/12 07:35:26;;;;;;;170.43;25.43;;;;;;;3.16;75.99;103529.56;5036718;23;20483;-50
2022/01/12 07:37:54;;;;;;;101.57;22.40;;;;;;;3.16;75.99;103533.06;5011884;28;20472;-49
2022/01/12 07:40:22;;;;;;;49.73;13.77;;;;;;;3.19;75.29;103527.63;5012009;28;20810;-45
2022/01/12 07:42:51;;;;;;;73.90;15.13;;;;;;;3.20;75.30;103531.09;5011364;28;20469;-49
2022/01/12 07:45:19;;;;;;;85.50;18.37;;;;;;;3.22;74.94;103545.94;5019919;28;20803;-49
2022/01/12 07:47:47;;;;;;;115.77;21.27;;;;;;;3.24;75.63;103559.03;5012365;28;20433;-51
2022/01/12 07:50:16;;;;;;;124.00;19.57;;;;;;;3.21;76.09;103565.31;5011759;28;20444;-47
2022/01/12 07:52:44;;;;;;;112.17;18.47;;;;;;;3.21;76.94;103569.72;5011174;28;21165;-53
2022/01/12 07:55:12;;;;;;;45.40;13.10;;;;;;;3.20;77.81;103568.88;5011861;28;20459;-50
2022/01/12 07:57:42;;;;;;;41.77;12.30;;;;;;;3.20;77.69;103579.41;5011752;28;20433;-47
2022/01/12 08:00:10;;;;;;;129.73;21.43;;;;;;;3.17;78.05;103579.59;5011767;28;20931;-50
2022/01/12 08:02:38;;;;;;;42.73;12.87;;;;;;;3.13;78.64;103579.84;5011252;28;20906;-49
2022/01/12 08:05:06;;;;;;;74.87;14.20;;;;;;;3.12;78.64;103583.41;5012066;28;20488;-50
2022/01/12 08:07:38;;;;;;;42.47;11.90;;;;;;;3.07;77.80;103591.56;5011807;28;20448;-48
2022/01/12 08:10:07;;;;;;;47.77;13.67;;;;;;;3.06;77.37;103581.94;5011877;28;20795;-48
2022/01/12 08:12:36;;;;;;;40.73;10.17;;;;;;;3.07;77.34;103580.16;5010959;28;20475;-51
2022/01/12 08:15:05;;;;;;;65.73;12.70;;;;;;;3.05;77.28;103587.25;5011507;28;20464;-48
2022/01/12 08:17:33;;;;;;;63.87;12.53;;;;;;;3.04;76.92;103598.75;5011791;28;20836;-45
2022/01/12 08:20:01;;;;;;;48.97;10.90;;;;;;;3.05;75.96;103595.19;5011643;28;20472;-47
2022/01/12 08:22:29;;;;;;;30.73;9.60;;;;;;;3.09;74.63;103600.22;5010968;28;20847;-50
2022/01/12 08:24:58;;;;;;;36.93;11.67;;;;;;;3.09;75.55;103602.00;5011677;28;20453;-45
2022/01/12 08:27:25;;;;;;;24.00;9.87;;;;;;;3.19;73.14;103604.13;5011513;28;20437;-48
2022/01/12 08:29:59;;;;;;;25.80;8.83;;;;;;;3.24;73.07;103607.34;5011543;28;20429;-48
2022/01/12 08:32:27;;;;;;;25.43;9.73;;;;;;;3.33;73.36;103606.00;5010974;28;20461;-47
2022/01/12 08:34:55;;;;;;;30.63;8.30;;;;;;;3.33;75.74;103611.28;5011658;28;20464;-48
2022/01/12 08:37:22;;;;;;;50.43;9.80;;;;;;;3.33;78.07;103601.59;5014986;28;20448;-47
2022/01/12 08:39:51;;;;;;;39.00;10.60;;;;;;;3.36;78.46;103611.13;5015242;28;20844;-48
2022/01/12 08:42:20;;;;;;;16.30;7.63;;;;;;;3.39;78.33;103597.78;5014388;28;20465;-52
2022/01/12 08:44:48;;;;;;;18.77;7.53;;;;;;;3.44;77.52;103590.47;5010328;28;20806;-51
2022/01/12 08:47:15;;;;;;;17.63;7.13;;;;;;;3.49;78.04;103588.47;5015741;28;20436;-45
2022/01/12 08:49:43;;;;;;;21.80;7.50;;;;;;;3.56;78.40;103586.31;5014880;28;20429;-50
2022/01/12 08:52:11;;;;;;;22.57;7.73;;;;;;;3.62;78.08;103580.72;5014184;28;20460;-46
2022/01/12 08:54:39;;;;;;;16.07;6.53;;;;;;;3.67;79.20;103583.97;5014510;28;20449;-52
2022/01/12 08:57:06;;;;;;;17.90;6.83;;;;;;;3.73;79.95;103587.13;5014948;28;20445;-51
2022/01/12 08:59:36;;;;;;;7.30;6.60;;;;;;;3.84;78.51;103591.81;5014829;28;20476;-49
2022/01/12 09:02:06;;;;;;;11.40;7.00;;;;;;;3.86;80.71;103589.94;5014029;28;20983;-51
2022/01/12 09:04:34;;;;;;;6.67;6.17;;;;;;;3.90;82.18;103589.72;5014571;28;20449;-50
2022/01/12 09:07:02;;;;;;;14.83;6.43;;;;;;;3.97;82.75;103594.66;5014262;28;20455;-44
2022/01/12 09:09:30;;;;;;;16.60;6.97;;;;;;;4.02;84.26;103589.97;5014683;28;20430;-49
2022/01/12 09:11:58;;;;;;;17.23;7.03;;;;;;;4.09;85.17;103601.91;5013873;28;20461;-51
2022/01/12 09:14:26;;;;;;;14.70;7.47;;;;;;;4.18;84.68;103610.13;5014338;28;20449;-45
2022/01/12 09:16:56;;;;;;;10.23;6.93;;;;;;;4.28;84.46;103618.41;5014347;28;20441;-51
2022/01/12 09:19:25;;;;;;;14.13;7.60;;;;;;;4.33;87.37;103616.38;5014163;28;20477;-47
2022/01/12 09:21:53;;;;;;;7.80;6.90;;;;;;;4.36;89.10;103614.41;5013682;28;20465;-50
2022/01/12 09:24:20;;;;;;;8.90;7.70;;;;;;;4.40;91.88;103615.09;5014057;28;20461;-46
2022/01/12 09:26:49;;;;;;;7.27;6.77;;;;;;;4.49;91.53;103614.56;5014251;28;20446;-49
2022/01/12 09:29:17;;;;;;;8.23;6.03;;;;;;;4.57;92.18;103619.41;5014138;28;20434;-46
2022/01/12 09:31:45;;;;;;;14.70;7.57;;;;;;;4.59;92.45;103609.59;5013296;28;20469;-48
2022/01/12 09:34:14;;;;;;;16.27;8.70;;;;;;;4.59;93.56;103613.09;5013968;28;20448;-50
2022/01/12 09:36:42;;;;;;;19.40;7.57;;;;;;;4.59;94.41;103606.97;5014127;28;20835;-47
2022/01/12 09:39:09;;;;;;;11.23;6.80;;;;;;;4.51;95.05;103610.03;5014024;28;20845;-46
2022/01/12 09:41:38;;;;;;;9.80;7.17;;;;;;;4.55;94.23;103605.44;5013409;28;20461;-51
2022/01/12 09:44:06;;;;;;;7.90;7.07;;;;;;;4.56;94.67;103610.63;5020034;28;20432;-47
2022/01/12 09:46:33;;;;;;;10.97;7.23;;;;;;;4.57;94.39;103609.69;5019575;28;20896;-49
2022/01/12 09:49:03;;;;;;;9.83;6.70;;;;;;;4.56;94.57;103609.78;5013561;28;20951;-48
2022/01/12 09:51:32;;;;;;;11.37;6.97;;;;;;;4.48;95.30;103610.19;5013294;28;20473;-46
2022/01/12 09:53:59;;;;;;;23.43;8.27;;;;;;;4.45;94.58;103624.44;5013664;28;20433;-50
2022/01/12 09:56:30;;;;;;;10.60;8.97;;;;;;;4.41;94.14;103632.66;5013961;28;20460;-46
2022/01/12 09:59:00;;;;;;;15.70;8.47;;;;;;;4.34;94.59;103645.34;5013393;28;20591;-49
2022/01/12 10:01:29;;;;;;;18.87;9.80;;;;;;;4.32;93.53;103654.28;5013029;28;20552;-50
2022/01/12 10:04:11;;;;;;;14.10;9.33;;;;;;;4.30;93.63;103650.91;5013404;28;20495;-47
2022/01/12 10:06:42;;;;;;;27.83;11.10;;;;;;;4.32;92.80;103649.88;5013742;28;20429;-50
2022/01/12 10:09:12;;;;;;;11.67;9.30;;;;;;;4.39;92.10;103655.66;5013416;28;20425;-47
2022/01/12 10:11:40;;;;;;;25.33;10.30;;;;;;;4.45;90.97;103647.38;5012627;28;20465;-45
2022/01/12 10:14:08;;;;;;;17.10;9.57;;;;;;;4.52;90.50;103643.44;5013308;28;20433;-51
2022/01/12 10:16:36;;;;;;;16.20;9.50;;;;;;;4.57;91.22;103640.56;5013279;28;20459;-43
2022/01/12 10:19:03;;;;;;;26.67;8.77;;;;;;;4.62;90.83;103620.84;5013091;28;20469;-45
2022/01/12 10:21:34;;;;;;;17.60;7.20;;;;;;;4.70;90.04;103626.53;5012569;28;20469;-47
2022/01/12 10:24:06;;;;;;;14.17;7.47;;;;;;;4.73;90.51;103623.72;5013001;28;20972;-45
2022/01/12 10:26:39;;;;;;;28.10;8.30;;;;;;;4.76;91.43;103617.41;5013027;28;20438;-48
2022/01/12 10:29:10;;;;;;;12.67;6.00;;;;;;;4.84;90.66;103610.72;5013085;28;20439;-47
2022/01/12 10:31:46;;;;;;;14.47;7.23;;;;;;;4.96;89.26;103610.00;5012431;28;20475;-48
2022/01/12 10:34:21;;;;;;;9.27;7.20;;;;;;;5.07;90.53;103611.19;5012629;28;20826;-48
2022/01/12 10:36:50;;;;;;;8.57;6.47;;;;;;;5.15;90.33;103601.84;5013092;28;20896;-47
2022/01/12 10:39:22;;;;;;;13.83;6.87;;;;;;;5.26;90.16;103611.75;5012900;28;20481;-50
2022/01/12 10:41:56;;;;;;;20.50;6.63;;;;;;;5.32;91.12;103616.69;5012258;28;20465;-47
2022/01/12 10:44:25;;;;;;;24.37;7.00;;;;;;;5.29;93.03;103614.22;5017514;28;20456;-47
2022/01/12 10:47:06;;;;;;;12.93;6.77;;;;;;;5.39;92.40;103610.09;5028169;28;20444;-48
2022/01/12 10:49:38;;;;;;;25.83;8.00;;;;;;;5.46;92.86;103601.69;5032316;28;20432;-45
2022/01/12 10:52:12;;;;;;;32.20;12.23;;;;;;;5.50;92.78;103608.47;5031713;28;20975;-45
2022/01/12 10:54:50;;;;;;;45.93;11.30;;;;;;;5.51;93.31;103599.63;5032351;28;20448;-47
2022/01/12 10:57:23;;;;;;;14.80;8.73;;;;;;;5.51;93.66;103604.06;5032164;28;20436;-50
2022/01/12 11:00:07;;;;;;;27.50;8.27;;;;;;;5.62;92.48;103600.72;5032103;28;20476;-47
2022/01/12 11:02:37;;;;;;;21.23;10.27;;;;;;;5.64;93.56;103583.81;5031606;28;20460;-48
2022/01/12 11:05:07;;;;;;;16.47;12.03;;;;;;;5.70;92.78;103583.44;5032328;28;20448;-51
2022/01/12 11:07:35;;;;;;;28.17;13.20;;;;;;;5.78;92.69;103577.66;5032406;28;20443;-44
2022/01/12 11:10:06;;;;;;;28.73;12.27;;;;;;;5.86;91.94;103573.59;5031972;28;20872;-46
2022/01/12 11:12:36;;;;;;;27.67;13.03;;;;;;;5.96;92.17;103568.56;5031575;28;20464;-50
2022/01/12 11:15:06;;;;;;;16.93;10.60;;;;;;;5.99;92.57;103569.25;5031972;28;20450;-49
2022/01/12 11:17:34;;;;;;;17.00;11.93;;;;;;;6.00;93.26;103580.69;5032174;28;20433;-48
2022/01/12 11:20:09;;;;;;;21.60;11.57;;;;;;;6.16;92.50;103577.88;5031783;28;20574;-48
2022/01/12 11:22:54;;;;;;;12.50;9.80;;;;;;;6.26;92.11;103574.56;5031416;28;20467;-50
2022/01/12 11:25:25;;;;;;;26.13;11.33;;;;;;;6.35;91.60;103581.06;5031721;28;20447;-46
2022/01/12 11:28:05;;;;;;;20.47;10.80;;;;;;;6.42;92.51;103582.38;5031907;28;20446;-48
2022/01/12 11:30:34;;;;;;;14.73;10.20;;;;;;;6.39;94.15;103578.09;5031626;28;20428;-50
2022/01/12 11:33:03;;;;;;;22.20;10.87;;;;;;;6.37;94.23;103587.94;5031276;28;20449;-45
2022/01/12 11:35:34;;;;;;;14.80;10.80;;;;;;;6.37;93.20;103595.03;5031504;28;20464;-52
2022/01/12 11:38:02;;;;;;;14.53;9.30;;;;;;;6.41;93.53;103589.47;5031810;28;20439;-48
2022/01/12 11:40:36;;;;;;;15.87;9.30;;;;;;;6.47;92.27;103570.50;5031465;28;20479;-48
2022/01/12 11:43:16;;;;;;;20.37;9.80;;;;;;;6.45;92.80;103572.38;5026933;28;20460;-45
2022/01/12 11:45:43;;;;;;;13.33;9.07;;;;;;;6.50;92.33;103580.91;5020155;28;20441;-46
2022/01/12 11:48:11;;;;;;;11.13;8.90;;;;;;;6.56;92.20;103591.09;5011802;28;20439;-47
2022/01/12 11:50:39;;;;;;;14.37;10.30;;;;;;;6.68;92.01;103592.09;5012032;28;20436;-47
2022/01/12 11:53:06;;;;;;;21.90;9.70;;;;;;;6.74;92.52;103598.78;5011583;28;20441;-47
2022/01/12 11:55:40;;;;;;;11.23;10.13;;;;;;;6.79;92.54;103594.88;5011693;28;20463;-49
2022/01/12 11:58:16;;;;;;;18.20;9.70;;;;;;;6.88;91.66;103585.44;5012019;28;20440;-49
2022/01/12 12:00:45;;;;;;;14.83;9.60;;;;;;;6.88;92.56;103572.19;5011435;28;20484;-45
2022/01/12 12:03:18;;;;;;;12.20;8.30;;;;;;;6.92;92.63;103571.03;5011850;28;20433;-46
2022/01/12 12:05:46;;;;;;;22.40;10.00;;;;;;;6.97;91.93;103566.25;5011660;28;20454;-49
2022/01/12 12:08:24;;;;;;;14.37;10.30;;;;;;;6.95;93.09;103554.91;5011848;28;20437;-48
2022/01/12 12:10:54;;;;;;;18.83;10.27;;;;;;;6.97;92.37;103567.09;5013199;28;20804;-49
2022/01/12 12:13:22;;;;;;;18.40;9.70;;;;;;;6.95;92.84;103563.72;5015598;28;20468;-49
2022/01/12 12:15:51;;;;;;;16.63;11.60;;;;;;;7.04;92.20;103555.13;5015450;28;20460;-45
2022/01/12 12:18:19;;;;;;;24.27;11.87;;;;;;;7.11;91.77;103553.72;5015418;28;20441;-45
2022/01/12 12:20:47;;;;;;;23.90;13.77;;;;;;;7.13;92.05;103546.53;5014508;28;20473;-45
2022/01/12 12:23:14;;;;;;;16.40;11.03;;;;;;;7.21;91.88;103551.28;5015505;28;20437;-48
2022/01/12 12:25:42;;;;;;;25.77;10.70;;;;;;;7.34;90.85;103559.25;5015265;28;20493;-49
2022/01/12 12:28:13;;;;;;;29.30;12.27;;;;;;;7.31;92.79;103555.03;5015386;28;20437;-46
2022/01/12 12:30:41;;;;;;;22.40;10.00;;;;;;;7.31;93.36;103546.19;5015008;28;20435;-48
2022/01/12 12:33:11;;;;;;;25.43;9.20;;;;;;;7.19;93.35;103550.56;5014792;28;20441;-47